createdAt,value
2019-06-07T00:00:25.995Z,15.49
2019-06-07T00:01:08.444Z,15.50
2019-06-07T00:02:08.212Z,15.36
2019-06-07T00:03:10.610Z,15.39
2019-06-07T00:04:09.877Z,15.41
2019-06-07T00:05:07.663Z,15.38
2019-06-07T00:06:10.253Z,15.31
2019-06-07T00:07:09.014Z,15.28
2019-06-07T00:08:11.699Z,15.31
2019-06-07T00:09:09.706Z,15.25
2019-06-07T00:10:07.105Z,15.32
2019-06-07T00:11:09.918Z,15.28
2019-06-07T00:12:09.087Z,15.28
2019-06-07T00:13:07.020Z,15.28
2019-06-07T00:14:08.616Z,15.28
2019-06-07T00:15:11.688Z,15.27
2019-06-07T00:16:08.560Z,15.19
2019-06-07T00:17:07.951Z,15.13
2019-06-07T00:18:11.213Z,15.20
2019-06-07T00:19:07.221Z,15.21
2019-06-07T00:20:11.005Z,15.20
2019-06-07T00:21:08.939Z,15.14
2019-06-07T00:22:16.588Z,15.11
2019-06-07T00:23:08.511Z,15.13
2019-06-07T00:24:08.565Z,15.10
2019-06-07T00:25:10.165Z,15.10
2019-06-07T00:26:06.716Z,15.13
2019-06-07T00:27:06.690Z,15.14
2019-06-07T00:28:06.670Z,15.11
2019-06-07T00:29:06.645Z,15.09
2019-06-07T00:30:32.500Z,15.13
2019-06-07T00:31:06.597Z,15.06
2019-06-07T00:32:06.574Z,15.11
2019-06-07T00:33:06.552Z,15.01
2019-06-07T00:34:06.529Z,14.99
2019-06-07T00:35:06.504Z,15.02
2019-06-07T00:36:06.482Z,15.01
2019-06-07T00:37:07.097Z,15.02
2019-06-07T00:38:06.436Z,14.94
2019-06-07T00:39:06.420Z,14.96
2019-06-07T00:40:16.299Z,14.95
2019-06-07T00:41:06.367Z,14.96
2019-06-07T00:42:06.342Z,14.98
2019-06-07T00:43:06.318Z,14.91
2019-06-07T00:44:06.295Z,14.91
2019-06-07T00:45:06.276Z,14.91
2019-06-07T00:46:06.247Z,14.83
2019-06-07T00:47:06.224Z,14.89
2019-06-07T00:48:06.210Z,14.86
2019-06-07T00:49:06.177Z,14.83
2019-06-07T00:50:06.160Z,14.78
2019-06-07T00:51:06.130Z,14.75
2019-06-07T00:52:06.109Z,14.70
2019-06-07T00:53:17.443Z,14.80
2019-06-07T00:54:06.061Z,14.80
2019-06-07T00:55:06.035Z,14.72
2019-06-07T00:56:06.013Z,14.72
2019-06-07T00:57:05.990Z,14.65
2019-06-07T00:58:05.966Z,14.70
2019-06-07T00:59:11.258Z,14.69
2019-06-07T01:00:05.918Z,14.68
2019-06-07T01:01:05.895Z,14.75
2019-06-07T01:02:05.873Z,14.69
2019-06-07T01:03:05.852Z,14.69
2019-06-07T01:04:05.851Z,14.73
2019-06-07T01:05:05.808Z,14.78
2019-06-07T01:06:05.777Z,14.73
2019-06-07T01:07:05.755Z,14.70
2019-06-07T01:08:05.736Z,14.69
2019-06-07T01:09:05.714Z,14.70
2019-06-07T01:10:05.684Z,14.77
2019-06-07T01:11:05.659Z,14.73
2019-06-07T01:12:05.640Z,14.69
2019-06-07T01:13:05.612Z,14.68
2019-06-07T01:14:05.590Z,14.69
2019-06-07T01:15:05.566Z,14.65
2019-06-07T01:16:05.542Z,14.68
2019-06-07T01:17:22.675Z,14.65
2019-06-07T01:18:35.858Z,14.68
2019-06-07T01:19:05.471Z,14.65
2019-06-07T01:20:05.447Z,14.61
2019-06-07T01:21:05.425Z,14.64
2019-06-07T01:22:05.400Z,14.60
2019-06-07T01:23:05.378Z,14.62
2019-06-07T01:24:11.877Z,14.57
2019-06-07T01:25:05.329Z,14.60
2019-06-07T01:26:05.310Z,14.62
2019-06-07T01:27:05.281Z,14.58
2019-06-07T01:28:05.259Z,14.57
2019-06-07T01:29:05.235Z,14.60
2019-06-07T01:30:05.227Z,14.55
2019-06-07T01:31:05.187Z,14.57
2019-06-07T01:32:05.163Z,14.55
2019-06-07T01:33:05.142Z,14.52
2019-06-07T01:34:05.119Z,14.55
2019-06-07T01:35:05.092Z,14.65
2019-06-07T01:36:05.069Z,14.54
2019-06-07T01:37:05.047Z,14.65
2019-06-07T01:38:05.022Z,14.64
2019-06-07T01:39:04.998Z,14.62
2019-06-07T01:40:04.984Z,14.62
2019-06-07T01:41:04.952Z,14.51
2019-06-07T01:42:04.928Z,14.62
2019-06-07T01:43:04.904Z,14.52
2019-06-07T01:44:04.881Z,14.47
2019-06-07T01:45:04.856Z,14.57
2019-06-07T01:46:04.834Z,14.55
2019-06-07T01:47:04.811Z,14.52
2019-06-07T01:48:04.788Z,14.55
2019-06-07T01:49:04.763Z,14.58
2019-06-07T01:50:04.739Z,14.55
2019-06-07T01:51:05.359Z,14.46
2019-06-07T01:52:04.691Z,14.40
2019-06-07T01:53:04.667Z,14.46
2019-06-07T01:55:04.620Z,14.50
2019-06-07T01:56:04.597Z,14.54
2019-06-07T01:57:04.573Z,14.40
2019-06-07T01:58:04.552Z,14.43
2019-06-07T01:59:04.524Z,14.42
2019-06-07T02:00:04.503Z,14.37
2019-06-07T02:01:04.483Z,14.33
2019-06-07T02:02:04.458Z,14.37
2019-06-07T02:03:04.432Z,14.29
2019-06-07T02:04:04.406Z,14.24
2019-06-07T02:05:04.382Z,14.24
2019-06-07T02:06:04.359Z,14.22
2019-06-07T02:07:04.334Z,14.18
2019-06-07T02:08:04.311Z,14.17
2019-06-07T02:09:04.287Z,14.10
2019-06-07T02:10:04.265Z,14.09
2019-06-07T02:11:04.242Z,14.02
2019-06-07T02:12:23.487Z,13.99
2019-06-07T02:13:04.192Z,14.02
2019-06-07T02:14:04.169Z,13.91
2019-06-07T02:15:04.326Z,13.85
2019-06-07T02:16:04.122Z,13.84
2019-06-07T02:17:04.099Z,13.69
2019-06-07T02:18:04.107Z,13.69
2019-06-07T02:19:04.153Z,13.57
2019-06-07T02:20:04.029Z,13.55
2019-06-07T02:21:04.067Z,13.48
2019-06-07T02:22:03.977Z,13.32
2019-06-07T02:23:03.953Z,13.39
2019-06-07T02:24:03.928Z,13.28
2019-06-07T02:25:35.195Z,13.22
2019-06-07T02:26:03.882Z,13.22
2019-06-07T02:27:03.857Z,13.08
2019-06-07T02:28:26.766Z,13.01
2019-06-07T02:29:03.808Z,12.93
2019-06-07T02:30:35.643Z,12.87
2019-06-07T02:31:03.777Z,13.03
2019-06-07T02:32:03.793Z,12.89
2019-06-07T02:33:03.721Z,12.87
2019-06-07T02:34:03.694Z,12.89
2019-06-07T02:35:03.671Z,12.78
2019-06-07T02:36:03.692Z,12.79
2019-06-07T02:37:03.613Z,12.60
2019-06-07T02:38:03.655Z,12.52
2019-06-07T02:39:03.565Z,12.47
2019-06-07T02:40:03.543Z,12.45
2019-06-07T02:41:03.514Z,12.47
2019-06-07T02:42:03.493Z,12.32
2019-06-07T02:43:03.465Z,12.20
2019-06-07T02:44:03.442Z,12.16
2019-06-07T02:45:03.420Z,12.10
2019-06-07T02:46:24.180Z,12.04
2019-06-07T02:47:03.368Z,11.98
2019-06-07T02:48:03.346Z,11.96
2019-06-07T02:49:03.319Z,12.05
2019-06-07T02:50:03.301Z,12.05
2019-06-07T02:51:03.271Z,12.10
2019-06-07T02:52:03.245Z,12.09
2019-06-07T02:53:03.220Z,12.12
2019-06-07T02:54:03.236Z,12.02
2019-06-07T02:55:03.209Z,11.96
2019-06-07T02:57:03.120Z,11.83
2019-06-07T02:58:03.097Z,11.83
2019-06-07T02:59:03.245Z,11.76
2019-06-07T03:00:27.089Z,11.70
2019-06-07T03:01:09.188Z,11.72
2019-06-07T03:02:03.054Z,11.61
2019-06-07T03:03:02.972Z,11.61
2019-06-07T03:04:02.953Z,11.60
2019-06-07T03:05:02.922Z,11.60
2019-06-07T03:06:02.898Z,11.54
2019-06-07T03:07:02.870Z,11.57
2019-06-07T03:08:02.847Z,11.47
2019-06-07T03:09:02.821Z,11.42
2019-06-07T03:10:02.850Z,11.42
2019-06-07T03:11:02.770Z,11.40
2019-06-07T03:12:02.748Z,11.29
2019-06-07T03:13:02.723Z,11.25
2019-06-07T03:14:02.701Z,11.32
2019-06-07T03:15:02.723Z,11.25
2019-06-07T03:16:02.647Z,11.33
2019-06-07T03:17:02.621Z,11.32
2019-06-07T03:18:02.597Z,11.27
2019-06-07T03:19:02.574Z,11.21
2019-06-07T03:20:02.545Z,11.10
2019-06-07T03:21:05.460Z,11.14
2019-06-07T03:22:02.498Z,11.14
2019-06-07T03:23:02.473Z,11.14
2019-06-07T03:24:02.445Z,11.10
2019-06-07T03:25:02.420Z,11.11
2019-06-07T03:26:02.394Z,11.14
2019-06-07T03:28:02.343Z,11.02
2019-06-07T03:29:02.319Z,11.00
2019-06-07T03:30:35.003Z,11.06
2019-06-07T03:31:03.325Z,11.02
2019-06-07T03:32:02.245Z,10.92
2019-06-07T03:33:02.217Z,10.88
2019-06-07T03:34:02.191Z,10.86
2019-06-07T03:35:02.165Z,10.88
2019-06-07T03:36:22.910Z,10.88
2019-06-07T03:37:02.115Z,10.92
2019-06-07T03:38:02.296Z,10.85
2019-06-07T03:39:02.064Z,10.84
2019-06-07T03:40:02.049Z,10.76
2019-06-07T03:41:02.013Z,10.88
2019-06-07T03:42:06.226Z,10.78
2019-06-07T03:43:01.962Z,10.73
2019-06-07T03:44:01.937Z,10.76
2019-06-07T03:45:01.912Z,10.76
2019-06-07T03:46:01.891Z,10.76
2019-06-07T03:47:01.860Z,10.76
2019-06-07T03:48:01.835Z,10.84
2019-06-07T03:49:02.495Z,10.81
2019-06-07T03:50:01.788Z,10.86
2019-06-07T03:51:04.944Z,10.86
2019-06-07T03:52:01.732Z,10.99
2019-06-07T03:53:01.713Z,11.09
2019-06-07T03:54:01.682Z,11.10
2019-06-07T03:55:01.656Z,11.10
2019-06-07T03:56:01.948Z,11.03
2019-06-07T03:57:01.604Z,11.10
2019-06-07T03:58:30.599Z,11.17
2019-06-07T03:59:01.554Z,11.32
2019-06-07T04:00:01.557Z,11.25
2019-06-07T04:01:02.173Z,11.37
2019-06-07T04:02:01.478Z,11.37
2019-06-07T04:03:01.452Z,11.40
2019-06-07T04:04:01.428Z,11.35
2019-06-07T04:05:01.403Z,11.46
2019-06-07T04:06:01.377Z,11.42
2019-06-07T04:07:01.350Z,11.36
2019-06-07T04:08:01.412Z,11.40
2019-06-07T04:09:01.300Z,11.46
2019-06-07T04:10:01.277Z,11.43
2019-06-07T04:11:01.271Z,11.60
2019-06-07T04:12:01.230Z,11.65
2019-06-07T04:13:01.226Z,11.67
2019-06-07T04:14:01.210Z,11.65
2019-06-07T04:15:01.147Z,11.76
2019-06-07T04:16:01.124Z,11.65
2019-06-07T04:17:01.099Z,11.79
2019-06-07T04:18:02.441Z,11.83
2019-06-07T04:19:01.047Z,11.96
2019-06-07T04:20:01.024Z,11.94
2019-06-07T04:21:01.002Z,12.05
2019-06-07T04:22:00.979Z,12.01
2019-06-07T04:23:00.946Z,12.04
2019-06-07T04:24:00.922Z,12.14
2019-06-07T04:25:00.895Z,12.20
2019-06-07T04:26:00.871Z,12.31
2019-06-07T04:27:00.846Z,12.31
2019-06-07T04:28:00.821Z,12.42
2019-06-07T04:30:07.225Z,12.59
2019-06-07T04:31:00.745Z,12.54
2019-06-07T04:32:00.720Z,12.65
2019-06-07T04:33:00.700Z,12.79
2019-06-07T04:34:00.671Z,12.86
2019-06-07T04:35:00.646Z,12.93
2019-06-07T04:36:00.619Z,13.15
2019-06-07T04:37:00.596Z,13.05
2019-06-07T04:38:00.572Z,13.08
2019-06-07T04:39:00.546Z,13.12
2019-06-07T04:40:00.523Z,13.12
2019-06-07T04:41:00.498Z,13.10
2019-06-07T04:42:00.473Z,13.15
2019-06-07T04:43:00.447Z,13.29
2019-06-07T04:44:00.425Z,13.36
2019-06-07T04:45:00.400Z,13.42
2019-06-07T04:46:00.374Z,13.39
2019-06-07T04:47:00.352Z,13.44
2019-06-07T04:48:00.329Z,13.52
2019-06-07T04:49:00.302Z,13.54
2019-06-07T04:50:00.278Z,13.54
2019-06-07T04:51:00.252Z,13.70
2019-06-07T04:52:00.228Z,13.70
2019-06-07T04:53:00.254Z,13.78
2019-06-07T04:54:00.179Z,13.78
2019-06-07T04:55:00.157Z,13.91
2019-06-07T04:56:00.132Z,13.91
2019-06-07T04:57:00.153Z,14.00
2019-06-07T04:58:00.082Z,14.04
2019-06-07T04:59:00.057Z,14.02
2019-06-07T05:00:22.274Z,14.09
2019-06-07T05:01:03.513Z,14.10
2019-06-07T05:01:59.985Z,14.18
2019-06-07T05:02:59.961Z,14.17
2019-06-07T05:03:59.935Z,14.24
2019-06-07T05:04:59.912Z,14.15
2019-06-07T05:05:59.888Z,14.21
2019-06-07T05:06:59.864Z,14.28
2019-06-07T05:08:07.266Z,14.27
2019-06-07T05:08:59.817Z,14.39
2019-06-07T05:09:59.795Z,14.40
2019-06-07T05:10:59.766Z,14.43
2019-06-07T05:11:59.745Z,14.42
2019-06-07T05:12:59.745Z,14.43
2019-06-07T05:13:59.695Z,14.51
2019-06-07T05:14:59.670Z,14.57
2019-06-07T05:15:59.646Z,14.69
2019-06-07T05:16:59.622Z,14.73
2019-06-07T05:17:59.599Z,14.73
2019-06-07T05:18:59.610Z,14.89
2019-06-07T05:19:59.550Z,15.06
2019-06-07T05:20:59.763Z,15.29
2019-06-07T05:22:04.328Z,15.59
2019-06-07T05:22:59.481Z,16.35
2019-06-07T05:24:07.565Z,17.48
2019-06-07T05:24:59.434Z,18.54
2019-06-07T05:25:59.409Z,19.62
2019-06-07T05:26:59.408Z,20.26
2019-06-07T05:27:59.365Z,20.89
2019-06-07T05:28:59.343Z,21.27
2019-06-07T05:30:09.598Z,21.54
2019-06-07T05:31:05.331Z,21.58
2019-06-07T05:31:59.277Z,21.84
2019-06-07T05:32:59.257Z,21.94
2019-06-07T05:33:59.239Z,22.14
2019-06-07T05:34:59.231Z,22.30
2019-06-07T05:35:59.197Z,22.45
2019-06-07T05:37:11.688Z,22.70
2019-06-07T05:37:59.158Z,22.80
2019-06-07T05:38:59.140Z,22.42
2019-06-07T05:39:59.120Z,22.39
2019-06-07T05:40:59.104Z,22.51
2019-06-07T05:41:59.082Z,22.79
2019-06-07T05:42:59.064Z,23.33
2019-06-07T05:44:12.005Z,23.15
2019-06-07T05:44:59.029Z,22.52
2019-06-07T05:45:59.011Z,22.54
2019-06-07T05:46:58.992Z,22.42
2019-06-07T05:47:58.979Z,22.43
2019-06-07T05:48:58.958Z,22.49
2019-06-07T05:49:58.993Z,22.70
2019-06-07T05:50:58.927Z,22.61
2019-06-07T05:51:58.908Z,22.79
2019-06-07T05:52:58.891Z,22.70
2019-06-07T05:53:58.874Z,23.23
2019-06-07T05:54:58.855Z,23.68
2019-06-07T05:55:58.841Z,23.79
2019-06-07T05:56:58.824Z,24.24
2019-06-07T05:57:58.817Z,24.67
2019-06-07T05:58:58.790Z,24.53
2019-06-07T05:59:58.805Z,24.52
2019-06-07T06:01:41.078Z,24.39
2019-06-07T06:02:04.846Z,24.68
2019-06-07T06:03:05.510Z,25.15
2019-06-07T06:03:58.710Z,25.52
2019-06-07T06:04:58.832Z,25.46
2019-06-07T06:05:58.680Z,25.72
2019-06-07T06:06:58.705Z,25.60
2019-06-07T06:07:58.649Z,25.23
2019-06-07T06:09:13.445Z,25.60
2019-06-07T06:09:58.620Z,25.55
2019-06-07T06:10:58.603Z,25.15
2019-06-07T06:12:02.264Z,25.35
2019-06-07T06:12:58.574Z,25.83
2019-06-07T06:14:07.267Z,25.32
2019-06-07T06:14:58.547Z,25.23
2019-06-07T06:16:02.003Z,25.58
2019-06-07T06:16:58.625Z,25.79
2019-06-07T06:17:58.551Z,25.54
2019-06-07T06:18:58.526Z,25.47
2019-06-07T06:19:58.821Z,25.80
2019-06-07T06:21:16.203Z,26.12
2019-06-07T06:21:58.444Z,26.39
2019-06-07T06:22:58.430Z,26.70
2019-06-07T06:23:58.415Z,26.88
2019-06-07T06:25:31.053Z,26.82
2019-06-07T06:25:58.614Z,26.88
2019-06-07T06:27:15.238Z,26.67
2019-06-07T06:28:11.493Z,26.72
2019-06-07T06:28:58.347Z,26.55
2019-06-07T06:29:58.333Z,25.75
2019-06-07T06:30:58.356Z,24.98
2019-06-07T06:32:58.919Z,25.38
2019-06-07T06:33:58.279Z,25.35
2019-06-07T06:34:58.263Z,25.61
2019-06-07T06:35:58.272Z,26.02
2019-06-07T06:36:58.237Z,26.23
2019-06-07T06:37:59.529Z,26.60
2019-06-07T06:38:58.210Z,26.25
2019-06-07T06:39:58.195Z,26.45
2019-06-07T06:41:14.762Z,26.36
2019-06-07T06:42:03.594Z,26.33
2019-06-07T06:42:58.155Z,26.55
2019-06-07T06:43:58.142Z,26.69
2019-06-07T06:44:58.128Z,26.40
2019-06-07T06:45:58.134Z,26.30
2019-06-07T06:46:58.685Z,25.39
2019-06-07T06:47:58.089Z,24.45
2019-06-07T06:48:58.485Z,24.78
2019-06-07T06:49:58.063Z,25.17
2019-06-07T06:50:58.048Z,25.73
2019-06-07T06:51:58.034Z,25.70
2019-06-07T06:52:58.022Z,25.69
2019-06-07T06:53:58.009Z,25.97
2019-06-07T06:55:00.706Z,26.66
2019-06-07T06:55:57.983Z,27.17
2019-06-07T06:57:18.122Z,27.02
2019-06-07T06:57:57.955Z,26.57
2019-06-07T06:59:34.162Z,26.69
2019-06-07T06:59:57.932Z,26.80
2019-06-07T07:01:06.599Z,26.73
2019-06-07T07:01:57.904Z,26.97
2019-06-07T07:04:11.077Z,25.92
2019-06-07T07:04:57.861Z,25.95
2019-06-07T07:06:23.125Z,26.35
2019-06-07T07:06:57.837Z,26.70
2019-06-07T07:07:57.823Z,26.58
2019-06-07T07:08:57.812Z,26.50
2019-06-07T07:09:59.495Z,26.99
2019-06-07T07:10:57.790Z,27.00
2019-06-07T07:12:10.944Z,27.22
2019-06-07T07:12:57.755Z,26.58
2019-06-07T07:13:57.743Z,26.02
2019-06-07T07:14:57.731Z,25.55
2019-06-07T07:15:58.642Z,25.15
2019-06-07T07:16:57.706Z,24.65
2019-06-07T07:18:07.763Z,25.13
2019-06-07T07:18:57.705Z,25.17
2019-06-07T07:19:57.663Z,25.79
2019-06-07T07:20:57.827Z,25.95
2019-06-07T07:21:57.781Z,25.61
2019-06-07T07:22:57.622Z,26.26
2019-06-07T07:24:20.330Z,26.75
2019-06-07T07:24:57.597Z,26.65
2019-06-07T07:25:59.870Z,26.33
2019-06-07T07:26:58.484Z,26.40
2019-06-07T07:27:57.556Z,26.55
2019-06-07T07:28:57.991Z,25.90
2019-06-07T07:30:34.804Z,26.35
2019-06-07T07:30:57.612Z,26.82
2019-06-07T07:31:57.505Z,26.85
2019-06-07T07:32:59.325Z,26.44
2019-06-07T07:34:28.989Z,26.48
2019-06-07T07:35:00.478Z,26.62
2019-06-07T07:36:35.159Z,26.99
2019-06-07T07:36:59.680Z,26.77
2019-06-07T07:37:59.781Z,26.99
2019-06-07T07:39:04.592Z,26.99
2019-06-07T07:40:09.704Z,26.82
2019-06-07T07:41:13.106Z,27.07
2019-06-07T07:42:18.027Z,27.13
2019-06-07T07:42:57.393Z,27.29
2019-06-07T07:44:06.003Z,27.62
2019-06-07T07:44:57.333Z,27.67
2019-06-07T07:46:02.056Z,27.47
2019-06-07T07:46:57.305Z,26.69
2019-06-07T07:48:14.163Z,26.10
2019-06-07T07:48:57.280Z,26.29
2019-06-07T07:49:59.145Z,26.35
2019-06-07T07:51:00.938Z,26.84
2019-06-07T07:51:59.124Z,27.50
2019-06-07T07:53:00.697Z,27.59
2019-06-07T07:54:09.699Z,27.43
2019-06-07T07:54:58.382Z,27.69
2019-06-07T07:55:59.953Z,27.96
2019-06-07T07:56:57.455Z,28.22
2019-06-07T07:58:01.765Z,28.25
2019-06-07T07:59:02.104Z,27.67
2019-06-07T08:00:24.748Z,26.99
2019-06-07T08:01:09.646Z,26.95
2019-06-07T08:01:58.699Z,27.02
2019-06-07T08:02:59.649Z,27.31
2019-06-07T08:03:58.687Z,27.43
2019-06-07T08:05:58.921Z,27.72
2019-06-07T08:06:57.048Z,26.99
2019-06-07T08:08:03.701Z,27.03
2019-06-07T08:08:57.191Z,27.06
2019-06-07T08:10:02.879Z,27.13
2019-06-07T08:11:01.293Z,27.07
2019-06-07T08:12:00.717Z,27.07
2019-06-07T08:13:22.157Z,26.97
2019-06-07T08:13:57.662Z,26.82
2019-06-07T08:15:00.424Z,26.82
2019-06-07T08:15:59.539Z,26.69
2019-06-07T08:16:57.969Z,27.04
2019-06-07T08:18:01.178Z,27.36
2019-06-07T08:19:02.659Z,27.92
2019-06-07T08:19:57.534Z,27.78
2019-06-07T08:21:19.831Z,27.82
2019-06-07T08:21:56.859Z,27.47
2019-06-07T08:22:59.757Z,27.34
2019-06-07T08:24:00.737Z,27.32
2019-06-07T08:24:59.853Z,27.54
2019-06-07T08:26:00.942Z,27.29
2019-06-07T08:27:17.742Z,27.51
2019-06-07T08:27:58.622Z,27.40
2019-06-07T08:29:01.812Z,26.91
2019-06-07T08:30:15.763Z,26.01
2019-06-07T08:31:04.317Z,25.70
2019-06-07T08:31:58.705Z,25.91
2019-06-07T08:33:11.992Z,26.10
2019-06-07T08:34:00.092Z,26.40
2019-06-07T08:35:02.457Z,26.67
2019-06-07T08:36:10.869Z,26.89
2019-06-07T08:36:59.195Z,26.94
2019-06-07T08:38:22.749Z,26.81
2019-06-07T08:39:02.595Z,26.30
2019-06-07T08:39:59.169Z,26.73
2019-06-07T08:41:05.044Z,26.57
2019-06-07T08:42:14.123Z,26.45
2019-06-07T08:43:11.938Z,26.36
2019-06-07T08:43:59.783Z,26.40
2019-06-07T08:45:03.147Z,26.18
2019-06-07T08:46:03.743Z,25.99
2019-06-07T08:47:14.916Z,26.06
2019-06-07T08:47:57.982Z,26.32
2019-06-07T08:49:01.384Z,26.60
2019-06-07T08:50:01.644Z,27.27
2019-06-07T08:50:58.709Z,27.29
2019-06-07T08:52:03.043Z,27.55
2019-06-07T08:53:03.613Z,27.96
2019-06-07T08:54:15.824Z,28.44
2019-06-07T08:54:57.861Z,28.59
2019-06-07T08:56:00.800Z,28.80
2019-06-07T08:57:16.889Z,28.80
2019-06-07T08:58:02.234Z,29.09
2019-06-07T08:59:00.630Z,29.19
2019-06-07T09:00:02.356Z,28.70
2019-06-07T09:01:03.617Z,28.25
2019-06-07T09:01:59.764Z,28.17
2019-06-07T09:02:58.921Z,28.19
2019-06-07T09:04:02.681Z,28.11
2019-06-07T09:04:59.269Z,28.34
2019-06-07T09:05:57.193Z,28.25
2019-06-07T09:07:18.415Z,27.34
2019-06-07T09:08:22.296Z,26.55
2019-06-07T09:09:00.336Z,26.32
2019-06-07T09:10:01.834Z,26.85
2019-06-07T09:10:58.690Z,26.65
2019-06-07T09:11:57.193Z,26.99
2019-06-07T09:13:00.377Z,26.70
2019-06-07T09:13:57.698Z,26.36
2019-06-07T09:15:09.335Z,26.40
2019-06-07T09:16:03.425Z,26.48
2019-06-07T09:17:01.350Z,26.94
2019-06-07T09:18:34.872Z,27.13
2019-06-07T09:18:58.986Z,27.43
2019-06-07T09:19:58.187Z,28.03
2019-06-07T09:20:58.192Z,27.96
2019-06-07T09:22:00.802Z,28.12
2019-06-07T09:22:59.127Z,27.78
2019-06-07T09:23:57.271Z,27.14
2019-06-07T09:25:05.314Z,27.09
2019-06-07T09:26:04.514Z,27.21
2019-06-07T09:26:57.706Z,27.10
2019-06-07T09:28:02.971Z,27.29
2019-06-07T09:28:57.918Z,27.90
2019-06-07T09:30:00.574Z,28.30
2019-06-07T09:30:57.826Z,28.71
2019-06-07T09:31:59.852Z,29.06
2019-06-07T09:32:57.284Z,28.88
2019-06-07T09:33:59.799Z,29.02
2019-06-07T09:35:02.495Z,29.19
2019-06-07T09:35:56.177Z,28.59
2019-06-07T09:36:58.155Z,28.71
2019-06-07T09:38:07.685Z,28.89
2019-06-07T09:38:58.735Z,28.92
2019-06-07T09:40:00.499Z,28.64
2019-06-07T09:40:57.440Z,28.83
2019-06-07T09:41:56.261Z,28.66
2019-06-07T09:43:47.404Z,27.34
2019-06-07T09:44:04.557Z,27.44
2019-06-07T09:44:57.013Z,27.63
2019-06-07T09:45:57.979Z,27.85
2019-06-07T09:47:20.602Z,27.66
2019-06-07T09:47:57.057Z,27.06
2019-06-07T09:49:21.252Z,27.17
2019-06-07T09:49:58.629Z,27.17
2019-06-07T09:51:02.118Z,27.55
2019-06-07T09:51:55.766Z,27.66
2019-06-07T09:53:02.795Z,26.45
2019-06-07T09:53:56.149Z,25.87
2019-06-07T09:55:09.347Z,25.77
2019-06-07T09:55:56.844Z,26.06
2019-06-07T09:56:55.629Z,26.06
2019-06-07T09:57:56.501Z,26.40
2019-06-07T09:58:55.602Z,26.36
2019-06-07T09:59:56.289Z,26.84
2019-06-07T10:00:59.165Z,26.75
2019-06-07T10:01:59.138Z,25.79
2019-06-07T10:02:55.550Z,25.13
2019-06-07T10:03:55.538Z,25.77
2019-06-07T10:04:55.524Z,26.30
2019-06-07T10:05:55.528Z,26.77
2019-06-07T10:06:55.521Z,27.39
2019-06-07T10:08:09.768Z,27.99
2019-06-07T10:10:55.443Z,28.22
2019-06-07T10:11:55.431Z,28.02
2019-06-07T10:12:55.417Z,27.94
2019-06-07T10:13:55.414Z,28.06
2019-06-07T10:14:55.391Z,28.22
2019-06-07T10:15:55.378Z,28.19
2019-06-07T10:16:55.367Z,28.07
2019-06-07T10:17:55.354Z,27.69
2019-06-07T10:18:55.341Z,27.74
2019-06-07T10:19:55.325Z,28.25
2019-06-07T10:20:55.315Z,28.78
2019-06-07T10:21:55.328Z,29.12
2019-06-07T10:22:55.323Z,29.00
2019-06-07T10:23:55.276Z,28.77
2019-06-07T10:24:55.265Z,28.74
2019-06-07T10:25:55.254Z,28.89
2019-06-07T10:26:55.242Z,28.55
2019-06-07T10:27:55.231Z,28.56
2019-06-07T10:28:55.228Z,27.93
2019-06-07T10:29:55.205Z,27.79
2019-06-07T10:30:55.191Z,27.37
2019-06-07T10:31:55.185Z,27.22
2019-06-07T10:32:55.168Z,27.81
2019-06-07T10:33:55.157Z,28.00
2019-06-07T10:34:55.143Z,28.17
2019-06-07T10:35:55.128Z,28.18
2019-06-07T10:36:55.130Z,28.29
2019-06-07T10:37:58.095Z,28.51
2019-06-07T10:38:55.090Z,28.74
2019-06-07T10:39:55.080Z,28.46
2019-06-07T10:40:55.066Z,28.41
2019-06-07T10:41:55.052Z,28.81
2019-06-07T10:42:55.038Z,28.92
2019-06-07T10:43:55.026Z,28.89
2019-06-07T10:44:55.016Z,28.74
2019-06-07T10:45:55.005Z,28.40
2019-06-07T10:46:54.994Z,28.98
2019-06-07T10:47:54.978Z,29.18
2019-06-07T10:48:54.987Z,29.16
2019-06-07T10:49:54.952Z,29.27
2019-06-07T10:50:54.942Z,29.33
2019-06-07T10:51:54.927Z,28.93
2019-06-07T10:52:54.914Z,29.28
2019-06-07T10:53:54.903Z,29.05
2019-06-07T10:54:54.888Z,29.19
2019-06-07T10:55:54.877Z,29.04
2019-06-07T10:56:54.866Z,28.74
2019-06-07T10:57:54.852Z,28.34
2019-06-07T10:58:54.838Z,27.65
2019-06-07T10:59:54.835Z,27.82
2019-06-07T11:00:54.816Z,28.07
2019-06-07T11:01:54.801Z,28.27
2019-06-07T11:02:55.342Z,28.90
2019-06-07T11:03:54.776Z,28.24
2019-06-07T11:04:54.767Z,28.44
2019-06-07T11:05:54.753Z,28.89
2019-06-07T11:06:54.739Z,29.08
2019-06-07T11:07:54.728Z,29.34
2019-06-07T11:08:54.713Z,29.60
2019-06-07T11:10:06.357Z,29.73
2019-06-07T11:10:54.687Z,29.41
2019-06-07T11:11:54.685Z,29.41
2019-06-07T11:12:54.663Z,29.64
2019-06-07T11:13:54.653Z,29.86
2019-06-07T11:14:54.636Z,30.04
2019-06-07T11:15:54.625Z,29.98
2019-06-07T11:16:54.616Z,29.43
2019-06-07T11:17:54.604Z,29.58
2019-06-07T11:18:54.587Z,29.97
2019-06-07T11:19:54.575Z,29.80
2019-06-07T11:20:54.565Z,28.92
2019-06-07T11:21:54.551Z,28.88
2019-06-07T11:22:54.538Z,28.85
2019-06-07T11:23:54.526Z,28.70
2019-06-07T11:24:54.514Z,28.74
2019-06-07T11:25:54.502Z,28.71
2019-06-07T11:26:54.494Z,28.77
2019-06-07T11:27:54.478Z,28.98
2019-06-07T11:28:54.470Z,29.05
2019-06-07T11:29:54.451Z,29.08
2019-06-07T11:30:54.442Z,29.23
2019-06-07T11:31:54.426Z,29.61
2019-06-07T11:32:54.425Z,29.68
2019-06-07T11:33:54.402Z,29.98
2019-06-07T11:34:54.389Z,30.01
2019-06-07T11:35:54.377Z,29.46
2019-06-07T11:36:54.365Z,29.28
2019-06-07T11:37:54.353Z,29.02
2019-06-07T11:38:54.362Z,28.96
2019-06-07T11:39:54.326Z,28.67
2019-06-07T11:40:54.324Z,28.62
2019-06-07T11:41:54.306Z,28.74
2019-06-07T11:42:54.288Z,28.66
2019-06-07T11:43:54.277Z,28.33
2019-06-07T11:44:57.120Z,28.11
2019-06-07T11:45:54.251Z,28.37
2019-06-07T11:46:54.239Z,28.49
2019-06-07T11:47:54.225Z,28.44
2019-06-07T11:48:54.212Z,28.43
2019-06-07T11:49:54.198Z,28.88
2019-06-07T11:50:54.187Z,28.86
2019-06-07T11:51:54.171Z,29.09
2019-06-07T11:52:54.159Z,29.02
2019-06-07T11:53:54.147Z,28.88
2019-06-07T11:54:54.132Z,29.09
2019-06-07T11:55:54.120Z,29.41
2019-06-07T11:56:54.108Z,29.64
2019-06-07T11:57:54.094Z,29.53
2019-06-07T11:58:54.081Z,29.11
2019-06-07T11:59:54.067Z,29.21
2019-06-07T12:00:54.055Z,29.24
2019-06-07T12:01:54.042Z,29.57
2019-06-07T12:02:54.074Z,30.01
2019-06-07T12:03:54.015Z,30.04
2019-06-07T12:04:54.002Z,29.34
2019-06-07T12:05:54.013Z,29.31
2019-06-07T12:06:53.976Z,29.80
2019-06-07T12:07:56.993Z,30.26
2019-06-07T12:08:53.951Z,30.58
2019-06-07T12:09:56.687Z,29.87
2019-06-07T12:10:53.926Z,28.96
2019-06-07T12:11:53.912Z,28.55
2019-06-07T12:12:53.902Z,28.49
2019-06-07T12:13:53.889Z,28.29
2019-06-07T12:14:53.874Z,28.62
2019-06-07T12:15:53.864Z,29.14
2019-06-07T12:16:53.849Z,29.45
2019-06-07T12:17:53.838Z,29.65
2019-06-07T12:18:53.826Z,29.90
2019-06-07T12:19:53.811Z,30.10
2019-06-07T12:20:53.806Z,30.54
2019-06-07T12:21:53.787Z,30.67
2019-06-07T12:22:53.773Z,30.86
2019-06-07T12:23:53.759Z,30.53
2019-06-07T12:24:53.747Z,29.76
2019-06-07T12:25:53.736Z,29.82
2019-06-07T12:26:53.722Z,29.90
2019-06-07T12:27:53.716Z,30.34
2019-06-07T12:28:53.711Z,30.53
2019-06-07T12:29:53.687Z,30.53
2019-06-07T12:30:55.223Z,30.70
2019-06-07T12:31:53.659Z,30.94
2019-06-07T12:32:53.646Z,31.21
2019-06-07T12:33:53.635Z,31.12
2019-06-07T12:34:53.623Z,30.29
2019-06-07T12:35:53.610Z,30.31
2019-06-07T12:36:53.596Z,30.05
2019-06-07T12:37:53.588Z,30.34
2019-06-07T12:38:53.570Z,30.27
2019-06-07T12:39:53.560Z,29.94
2019-06-07T12:40:57.574Z,29.83
2019-06-07T12:41:53.537Z,30.08
2019-06-07T12:42:53.523Z,29.97
2019-06-07T12:43:53.509Z,29.58
2019-06-07T12:44:53.498Z,29.83
2019-06-07T12:45:53.489Z,29.30
2019-06-07T12:46:53.471Z,29.36
2019-06-07T12:47:53.460Z,29.43
2019-06-07T12:48:53.488Z,29.49
2019-06-07T12:49:53.434Z,29.98
2019-06-07T12:50:53.422Z,30.16
2019-06-07T12:51:53.408Z,29.86
2019-06-07T12:52:53.397Z,30.23
2019-06-07T12:53:53.382Z,30.54
2019-06-07T12:54:53.370Z,30.83
2019-06-07T12:55:53.358Z,30.79
2019-06-07T12:56:53.345Z,30.46
2019-06-07T12:57:53.334Z,30.27
2019-06-07T12:58:53.318Z,30.29
2019-06-07T12:59:53.314Z,30.10
2019-06-07T13:00:53.295Z,30.27